Tununak, AK

11:53 AM AKDT on July 24, 2016 (GMT -0800)
Tooksok Bay|Toksook Bay Airpo | | Change Station

Elev 59 ft 60.54 °N, 165.09 °W | Updated 57 minutes ago

Overcast
Overcast
55 °F
Feels Like 55 °F
N
15
Wind Variable Wind from WNW

Today
High -- | Low -- °F
--% Chance of Precip.
Yesterday
High -- | Low -- °F
Precip. -- in
Pressure 29.76 in
Visibility 10.0 miles
Clouds Overcast 1200 ft
Dew Point 51 °F
Humidity 86%
Rainfall 0.00 in
Snow Depth Not available.
6:18 AM 11:51 PM
Waning Gibbous, 73% visible
METAR PAOO 241856Z AUTO 29013KT 10SM OVC012 13/11 A2973 RMK AO2 SLP077 T01280106
Pressure 29.76 in
Visibility 10.0 miles
Clouds Overcast 1200 ft
Dew Point 51 °F
Humidity 86%
Rainfall 0.00 in
Snow Depth Not available.
6:18 AM 11:51 PM
Waning Gibbous, 73% visible
METAR PAOO 241856Z AUTO 29013KT 10SM OVC012 13/11 A2973 RMK AO2 SLP077 T01280106

10-Day Weather Forecast

Almanac

Astronomy

Jul. 24, 2016 Rise Set
Actual Time
Civil Twilight
Nautical Twilight
Astronomical Twilight
Moon
Length of Visible Light
Length of Day
Tomorrow will be .
, % of the Moon is Illuminated

Today's Extremes

State Highs State Lows

Community

WunderPhotos

Upload Photos

1,927,176 photos uploaded!

WunderBlog® & News

Nearby

Air Quality

  Air Quality AQ Index Pollutant
Not available.

Snow Depth

Station Depth Elevation

Earthquake Activity

City Distance Mag. Time & Date
Minimum magnitude displayed is 2.5.

Coastal Water Temperatures

Place Temperature

Stations

Nearby Weather Stations

Station Location Temp. Windchill Dew Point Humidity Wind Precip. Elev Updated Type
                   

Watches & Warnings

There are currently no watches in effect.